Time;durP1;ratioP1;P1;durP2;ratioP2;P2;SDS_P1;SDS_P2;PMS_P1;PMS_P2;Temp;Humidity;BMP_temperature;BMP_pressure;BME280_temperature;BME280_humidity;BME280_pressure;Samples;Min_cycle;Max_cycle;Signal;HPM_P1;HPM_P2
2022/10/19 00:01:17;;;;;;;0.50;0.50;;;;;;;12.03;67.84;102270.97;5105205;28;20046;-92
2022/10/19 00:03:51;;;;;;;1.70;1.27;;;;;;;11.95;68.24;102269.25;5128224;28;20125;-91
2022/10/19 00:06:27;;;;;;;0.52;0.52;;;;;;;11.92;68.52;102268.41;5109405;28;20082;-92
2022/10/19 00:09:02;;;;;;;0.30;0.30;;;;;;;11.92;68.31;102264.03;5106696;29;20131;-91
2022/10/19 00:11:34;;;;;;;0.90;0.90;;;;;;;11.94;68.17;102266.63;5088958;29;20039;-93
2022/10/19 00:14:06;;;;;;;2.28;1.67;;;;;;;11.90;68.48;102265.78;5139038;28;20137;-92
2022/10/19 00:16:37;;;;;;;2.08;1.30;;;;;;;11.86;68.27;102264.06;5088288;29;20067;-91
2022/10/19 00:19:21;;;;;;;0.85;0.85;;;;;;;11.88;67.89;102254.41;5104645;29;20034;-91
2022/10/19 00:21:51;;;;;;;0.68;0.68;;;;;;;11.84;68.37;102250.06;5122515;28;20090;-91
2022/10/19 00:24:22;;;;;;;0.68;0.68;;;;;;;11.84;68.37;102252.69;5125826;28;20090;-94
2022/10/19 00:26:53;;;;;;;0.63;0.63;;;;;;;11.77;68.84;102251.00;5116199;28;20505;-92
2022/10/19 00:29:23;;;;;;;0.35;0.35;;;;;;;11.78;68.15;102250.97;5124526;28;20511;-90
2022/10/19 00:31:54;;;;;;;2.83;2.28;;;;;;;11.79;67.77;102249.22;5108870;29;20035;-92
2022/10/19 00:34:24;;;;;;;0.32;0.32;;;;;;;11.75;68.57;102252.75;5141593;28;20041;-93
2022/10/19 00:36:55;;;;;;;0.68;0.65;;;;;;;11.71;68.40;102248.41;5109362;29;20111;-91
2022/10/19 00:39:25;;;;;;;0.88;0.88;;;;;;;11.68;68.48;102248.44;5099514;28;20039;-92
2022/10/19 00:41:56;;;;;;;0.40;0.40;;;;;;;11.69;68.70;102250.19;5137290;28;20062;-91
2022/10/19 00:44:29;;;;;;;3.65;2.17;;;;;;;11.66;68.73;102256.31;5117205;28;20041;-93
2022/10/19 00:47:02;;;;;;;;;;;;;;;11.63;68.88;102254.59;5122077;28;20034;-91
2022/10/19 00:49:37;;;;;;;0.70;0.70;;;;;;;11.60;68.83;102267.78;5118808;28;20001;-92
2022/10/19 00:52:13;;;;;;;3.78;0.98;;;;;;;11.59;68.19;102255.50;5107797;28;20031;-91
2022/10/19 00:54:45;;;;;;;0.60;0.60;;;;;;;11.61;68.38;102264.22;5150102;28;20437;-92
2022/10/19 00:57:16;;;;;;;1.27;1.23;;;;;;;11.59;68.86;102263.38;5113983;28;20073;-92
2022/10/19 00:59:48;;;;;;;0.32;0.32;;;;;;;11.59;68.64;102260.75;5139761;28;20047;-92
2022/10/19 01:02:18;;;;;;;0.30;0.30;;;;;;;11.57;68.91;102261.66;5129975;28;20043;-91
2022/10/19 01:04:51;;;;;;;0.80;0.70;;;;;;;11.57;68.92;102266.91;5100372;28;20035;-90
2022/10/19 01:07:23;;;;;;;2.45;1.38;;;;;;;11.53;68.32;102255.53;5138311;28;20035;-92
2022/10/19 01:09:54;;;;;;;0.30;0.30;;;;;;;11.47;68.95;102252.94;5131186;28;20043;-93
2022/10/19 01:12:37;;;;;;;0.35;0.35;;;;;;;11.48;68.35;102254.69;5115939;28;20125;-90
2022/10/19 01:15:44;;;;;;;0.38;0.38;;;;;;;11.48;68.84;102246.81;5140728;28;20032;-91
2022/10/19 01:18:33;;;;;;;0.25;0.25;;;;;;;11.48;68.38;102241.53;5107387;29;20114;-91
2022/10/19 01:21:22;;;;;;;0.30;0.30;;;;;;;11.46;68.33;102249.44;5140756;28;20067;-94
2022/10/19 01:24:11;;;;;;;0.60;0.60;;;;;;;11.41;68.69;102239.84;5098200;29;20050;-91
2022/10/19 01:27:39;;;;;;;1.25;1.25;;;;;;;11.40;68.81;102238.09;5119876;28;20078;-92
2022/10/19 01:30:32;;;;;;;0.57;0.57;;;;;;;11.29;68.35;102236.41;5102286;28;20095;-92
2022/10/19 01:33:26;;;;;;;0.57;0.57;;;;;;;11.29;68.12;102228.50;5105902;29;20263;-90
2022/10/19 01:36:09;;;;;;;0.77;0.77;;;;;;;11.24;69.03;102227.69;5105262;28;20043;-91
2022/10/19 01:38:44;;;;;;;0.20;0.20;;;;;;;11.20;69.11;102230.31;5131069;28;20032;-91
2022/10/19 01:41:35;;;;;;;0.77;0.77;;;;;;;11.11;69.23;102232.13;5126446;28;20394;-91
2022/10/19 01:44:10;;;;;;;5.15;1.98;;;;;;;11.13;68.58;102229.47;5122664;28;20024;-91
2022/10/19 01:46:45;;;;;;;0.32;0.32;;;;;;;11.09;68.80;102217.25;5102507;28;20035;-91
2022/10/19 01:49:21;;;;;;;1.30;0.75;;;;;;;11.09;68.54;102226.00;5114117;28;20198;-90
2022/10/19 01:51:56;;;;;;;2.20;0.93;;;;;;;11.07;69.08;102219.91;5123256;28;20418;-92
2022/10/19 01:54:33;;;;;;;0.52;0.52;;;;;;;11.09;68.61;102206.75;5113539;28;20036;-90
2022/10/19 01:57:06;;;;;;;0.75;0.75;;;;;;;11.10;69.10;102219.00;5108457;28;20035;-92
2022/10/19 01:59:38;;;;;;;0.73;0.73;;;;;;;11.07;68.57;102213.75;5109263;28;20075;-92
2022/10/19 02:02:10;;;;;;;4.95;2.42;;;;;;;11.08;68.60;102220.75;5143448;28;20127;-91
2022/10/19 02:04:42;;;;;;;0.95;0.95;;;;;;;11.06;68.79;102210.28;5115688;28;20039;-93
2022/10/19 02:07:13;;;;;;;0.50;0.50;;;;;;;11.08;68.25;102212.88;5146027;28;20020;-92
2022/10/19 02:09:44;;;;;;;0.60;0.60;;;;;;;11.00;68.87;102212.91;5124625;28;20031;-91
2022/10/19 02:12:15;;;;;;;0.50;0.50;;;;;;;11.02;67.79;102211.16;5113601;29;20027;-91
2022/10/19 02:14:49;;;;;;;1.08;0.52;;;;;;;10.99;68.56;102209.41;5121643;28;20707;-91
2022/10/19 02:17:27;;;;;;;0.45;0.45;;;;;;;10.99;68.54;102201.53;5139485;28;20040;-92
2022/10/19 02:19:59;;;;;;;0.98;0.98;;;;;;;10.96;68.63;102200.69;5104983;28;20409;-91
2022/10/19 02:22:30;;;;;;;0.40;0.40;;;;;;;10.92;69.04;102197.19;5104048;28;20151;-91
2022/10/19 02:25:01;;;;;;;0.30;0.30;;;;;;;10.94;68.66;102195.44;5101779;28;20036;-91
2022/10/19 02:27:32;;;;;;;0.30;0.30;;;;;;;10.93;68.39;102190.19;5104358;29;20031;-94
2022/10/19 02:30:03;;;;;;;0.30;0.30;;;;;;;10.92;68.25;102191.94;5106700;28;20066;-92
2022/10/19 02:32:34;;;;;;;0.75;0.75;;;;;;;10.94;68.84;102200.69;5116258;28;20024;-92
2022/10/19 02:35:05;;;;;;;0.70;0.70;;;;;;;10.92;68.62;102199.81;5116264;28;20039;-91
2022/10/19 02:37:36;;;;;;;1.65;1.05;;;;;;;10.93;68.74;102196.34;5137321;28;20035;-92
2022/10/19 02:40:07;;;;;;;1.42;1.38;;;;;;;10.91;68.55;102198.06;5107256;28;20035;-90
2022/10/19 02:42:43;;;;;;;0.43;0.43;;;;;;;10.89;69.05;102194.59;5138398;28;20028;-91
2022/10/19 02:45:20;;;;;;;0.73;0.73;;;;;;;10.82;69.19;102177.13;5123971;28;20035;-91
2022/10/19 02:48:01;;;;;;;0.85;0.85;;;;;;;10.86;68.33;102173.59;5125467;28;20023;-91
2022/10/19 02:50:32;;;;;;;0.50;0.50;;;;;;;10.84;68.49;102178.84;5109683;28;20122;-91
2022/10/19 02:53:03;;;;;;;0.30;0.30;;;;;;;10.83;68.36;102176.25;5142535;28;20105;-91
2022/10/19 02:55:33;;;;;;;2.20;0.73;;;;;;;10.78;68.76;102175.41;5123748;28;20077;-91
2022/10/19 02:58:04;;;;;;;2.55;1.73;;;;;;;10.76;69.15;102171.91;5144895;28;20193;-91
2022/10/19 03:00:34;;;;;;;0.93;0.88;;;;;;;10.74;68.99;102173.66;5119185;28;20316;-92
2022/10/19 03:03:05;;;;;;;3.83;2.13;;;;;;;10.73;68.91;102166.66;5133453;28;20054;-92
2022/10/19 03:05:36;;;;;;;3.70;0.60;;;;;;;10.71;69.10;102164.91;5151322;28;20145;-91
2022/10/19 03:08:06;;;;;;;0.40;0.40;;;;;;;10.69;69.12;102160.53;5122592;28;20113;-92
2022/10/19 03:10:37;;;;;;;2.67;2.15;;;;;;;10.69;68.58;102158.81;5120229;28;20067;-92
2022/10/19 03:13:07;;;;;;;3.28;1.40;;;;;;;10.67;68.78;102160.56;5130342;28;20085;-91
2022/10/19 03:15:38;;;;;;;1.88;1.65;;;;;;;10.68;68.85;102164.03;5132839;28;20469;-91
2022/10/19 03:18:08;;;;;;;1.38;1.05;;;;;;;10.69;68.28;102166.69;5135807;28;20038;-92
2022/10/19 03:20:39;;;;;;;0.45;0.45;;;;;;;10.65;68.17;102161.44;5137516;28;20058;-91
2022/10/19 03:23:09;;;;;;;0.77;0.77;;;;;;;10.54;68.85;102164.09;5124510;28;20039;-92
2022/10/19 03:25:40;;;;;;;0.75;0.63;;;;;;;10.60;68.63;102165.81;5138569;28;20039;-92
2022/10/19 03:28:10;;;;;;;1.10;1.08;;;;;;;10.55;68.46;102171.09;5123052;28;20030;-92
2022/10/19 03:30:41;;;;;;;1.45;0.98;;;;;;;10.48;68.70;102166.75;5127946;28;20054;-93
2022/10/19 03:33:11;;;;;;;0.82;0.82;;;;;;;10.49;68.48;102174.63;5140117;28;20045;-91
2022/10/19 03:35:42;;;;;;;0.63;0.63;;;;;;;10.45;68.53;102172.88;5138424;28;20051;-92
2022/10/19 03:38:12;;;;;;;0.68;0.68;;;;;;;10.39;68.44;102165.03;5138993;28;20034;-90
2022/10/19 03:40:43;;;;;;;1.30;1.20;;;;;;;10.38;68.52;102166.78;5135697;28;20045;-92
2022/10/19 03:43:13;;;;;;;0.50;0.50;;;;;;;10.35;68.08;102158.91;5136242;28;20042;-91
2022/10/19 03:45:47;;;;;;;1.05;0.95;;;;;;;10.33;68.12;102171.16;5156105;28;20091;-90
2022/10/19 03:48:20;;;;;;;0.50;0.50;;;;;;;10.28;68.39;102164.16;5134967;28;20487;-93
2022/10/19 03:51:03;;;;;;;0.47;0.47;;;;;;;10.29;68.05;102163.28;5142962;28;20019;-94
2022/10/19 03:53:34;;;;;;;0.23;0.23;;;;;;;10.22;68.40;102159.78;5171129;28;20452;-92
2022/10/19 03:56:07;;;;;;;0.40;0.40;;;;;;;10.23;68.40;102157.19;5145909;28;20291;-92
2022/10/19 03:58:39;;;;;;;0.47;0.47;;;;;;;10.24;68.60;102165.91;5131539;28;20086;-92
2022/10/19 04:01:13;;;;;;;0.32;0.32;;;;;;;10.24;68.11;102163.28;5121877;28;20106;-91
2022/10/19 04:03:43;;;;;;;0.40;0.40;;;;;;;10.23;68.37;102166.78;5123905;28;20054;-92
2022/10/19 04:06:16;;;;;;;1.38;1.20;;;;;;;10.20;68.73;102170.31;5138552;28;20082;-93
2022/10/19 04:08:48;;;;;;;0.55;0.52;;;;;;;10.21;68.43;102168.53;5136818;28;20256;-92
2022/10/19 04:11:22;;;;;;;0.45;0.45;;;;;;;10.18;68.41;102173.81;5132581;28;20390;-93
2022/10/19 04:13:53;;;;;;;0.50;0.50;;;;;;;10.12;68.58;102176.44;5129421;28;20444;-90
2022/10/19 04:16:26;;;;;;;0.50;0.50;;;;;;;10.08;68.59;102176.44;5137441;28;20499;-88
2022/10/19 04:18:57;;;;;;;0.40;0.40;;;;;;;10.07;68.67;102172.06;5155234;28;20041;-88
2022/10/19 04:21:36;;;;;;;0.73;0.73;;;;;;;10.04;68.54;102172.06;5133559;28;20066;-88
2022/10/19 04:24:13;;;;;;;0.47;0.47;;;;;;;10.06;68.70;102170.31;5151703;28;20431;-88
2022/10/19 04:26:49;;;;;;;0.40;0.40;;;;;;;9.96;68.91;102159.84;5154599;28;20043;-87
2022/10/19 04:29:22;;;;;;;0.82;0.77;;;;;;;10.02;69.00;102167.69;5128749;28;20062;-89
2022/10/19 04:31:53;;;;;;;0.55;0.55;;;;;;;10.01;68.88;102169.47;5130910;28;20087;-87
2022/10/19 04:34:24;;;;;;;0.93;0.93;;;;;;;10.01;69.13;102164.22;5123364;28;20413;-88
2022/10/19 04:36:58;;;;;;;0.63;0.63;;;;;;;10.00;69.05;102164.22;5141366;28;20444;-89
2022/10/19 04:39:28;;;;;;;0.65;0.65;;;;;;;9.98;68.44;102161.59;5127207;28;20026;-88
2022/10/19 04:41:58;;;;;;;2.97;1.48;;;;;;;9.95;69.16;102160.72;5124755;28;20027;-89
2022/10/19 04:44:29;;;;;;;0.43;0.43;;;;;;;9.94;68.88;102154.63;5136697;28;20027;-88
2022/10/19 04:46:59;;;;;;;0.68;0.68;;;;;;;9.87;69.12;102155.50;5125125;28;20417;-86
2022/10/19 04:49:30;;;;;;;1.10;1.08;;;;;;;9.86;69.18;102164.25;5154743;28;20058;-87
2022/10/19 04:52:00;;;;;;;0.93;0.93;;;;;;;9.88;69.25;102165.09;5139402;28;20400;-85
2022/10/19 04:54:31;;;;;;;0.70;0.70;;;;;;;9.85;69.09;102167.75;5142371;28;20043;-86
2022/10/19 04:57:01;;;;;;;0.30;0.30;;;;;;;9.83;69.22;102172.09;5140616;28;20479;-89
2022/10/19 04:59:32;;;;;;;0.63;0.63;;;;;;;9.85;69.31;102167.75;5133642;28;20043;-86
2022/10/19 05:02:02;;;;;;;1.42;1.30;;;;;;;9.84;69.39;102164.22;5122264;28;20731;-85
2022/10/19 05:04:33;;;;;;;1.75;1.10;;;;;;;9.84;69.22;102168.59;5153167;28;20130;-88
2022/10/19 05:07:03;;;;;;;0.30;0.30;;;;;;;9.83;69.42;102159.88;5139778;28;20058;-87
2022/10/19 05:09:34;;;;;;;0.65;0.65;;;;;;;9.83;69.33;102165.13;5127480;28;20070;-88
2022/10/19 05:12:05;;;;;;;0.50;0.50;;;;;;;9.84;69.07;102171.22;5141478;28;20061;-87
2022/10/19 05:14:35;;;;;;;0.30;0.30;;;;;;;9.79;69.07;102171.22;5168797;28;20031;-86
2022/10/19 05:17:06;;;;;;;2.40;1.15;;;;;;;9.79;69.03;102170.38;5130757;28;20404;-87
2022/10/19 05:19:36;;;;;;;1.20;1.13;;;;;;;9.73;69.20;102169.47;5116898;28;20404;-88
2022/10/19 05:22:08;;;;;;;0.32;0.32;;;;;;;9.77;68.84;102160.75;5144532;28;20035;-88
2022/10/19 05:24:38;;;;;;;0.55;0.55;;;;;;;9.74;69.33;102158.13;5114886;28;20401;-87
2022/10/19 05:27:09;;;;;;;0.30;0.30;;;;;;;9.74;69.00;102163.38;5127391;28;20034;-87
2022/10/19 05:29:39;;;;;;;0.40;0.40;;;;;;;9.75;69.14;102159.88;5119899;28;20034;-86
2022/10/19 05:32:10;;;;;;;0.40;0.40;;;;;;;9.71;68.97;102163.34;5122514;28;20031;-87
2022/10/19 05:34:40;;;;;;;1.38;1.13;;;;;;;9.74;68.73;102158.13;5111528;28;20038;-87
2022/10/19 05:37:11;;;;;;;0.40;0.40;;;;;;;9.73;68.86;102156.38;5134652;28;20035;-87
2022/10/19 05:39:42;;;;;;;0.40;0.40;;;;;;;9.75;68.86;102152.00;5133587;28;20034;-88
2022/10/19 05:42:12;;;;;;;0.75;0.75;;;;;;;9.71;68.90;102147.63;5135174;28;20466;-88
2022/10/19 05:44:43;;;;;;;1.42;0.90;;;;;;;9.70;68.39;102147.63;5128667;28;20058;-87
2022/10/19 05:47:13;;;;;;;0.52;0.52;;;;;;;9.68;68.59;102147.66;5131300;28;20042;-87
2022/10/19 05:49:44;;;;;;;0.40;0.40;;;;;;;9.55;68.67;102145.88;5135795;28;20069;-86
2022/10/19 05:52:16;;;;;;;0.70;0.70;;;;;;;9.50;69.09;102132.81;5134615;28;20034;-86
2022/10/19 05:54:47;;;;;;;0.43;0.40;;;;;;;9.51;68.71;102133.69;5114210;28;20103;-86
2022/10/19 05:57:17;;;;;;;0.40;0.40;;;;;;;9.49;68.65;102125.81;5116308;28;20517;-86
2022/10/19 05:59:47;;;;;;;0.40;0.40;;;;;;;9.50;68.69;102124.06;5112081;28;20093;-86
2022/10/19 06:02:18;;;;;;;0.35;0.35;;;;;;;9.43;69.39;102131.03;5114534;28;20053;-86
2022/10/19 06:04:49;;;;;;;0.82;0.82;;;;;;;9.42;68.59;102132.81;5127984;28;20245;-86
2022/10/19 06:07:19;;;;;;;0.68;0.68;;;;;;;9.36;69.10;102134.53;5131901;28;20135;-86
2022/10/19 06:09:49;;;;;;;0.60;0.60;;;;;;;9.38;69.04;102138.91;5127612;28;20097;-86
2022/10/19 06:12:20;;;;;;;0.63;0.63;;;;;;;9.36;69.02;102139.78;5129081;28;20042;-86
2022/10/19 06:14:51;;;;;;;0.47;0.47;;;;;;;9.33;69.17;102142.41;5142187;28;20125;-86
2022/10/19 06:17:21;;;;;;;0.75;0.75;;;;;;;9.29;69.09;102139.78;5135402;28;20082;-86
2022/10/19 06:19:51;;;;;;;1.70;1.60;;;;;;;9.25;69.52;102148.53;5132007;28;20043;-86
2022/10/19 06:22:22;;;;;;;0.82;0.82;;;;;;;9.21;70.03;102144.13;5130903;28;20038;-86
2022/10/19 06:24:54;;;;;;;1.20;1.10;;;;;;;9.14;70.68;102145.84;5140725;28;20039;-87
2022/10/19 06:27:25;;;;;;;1.52;1.02;;;;;;;9.10;71.10;102143.22;5129326;28;20062;-87
2022/10/19 06:29:55;;;;;;;0.40;0.40;;;;;;;9.11;70.43;102155.44;5124744;28;20137;-86
2022/10/19 06:32:27;;;;;;;0.45;0.45;;;;;;;9.08;72.36;102145.00;5143900;28;20041;-86
2022/10/19 06:34:57;;;;;;;1.52;1.42;;;;;;;9.12;71.68;102139.78;5118749;28;20034;-86
2022/10/19 06:37:28;;;;;;;0.47;0.47;;;;;;;9.06;72.32;102147.59;5131564;28;20027;-87
2022/10/19 06:39:58;;;;;;;1.33;1.27;;;;;;;9.11;71.77;102151.09;5142492;28;20042;-86
2022/10/19 06:42:29;;;;;;;1.65;1.02;;;;;;;9.05;72.43;102153.69;5131167;28;20400;-86
2022/10/19 06:44:59;;;;;;;2.22;1.02;;;;;;;8.95;75.23;102149.31;5127479;28;20124;-87
2022/10/19 06:47:31;;;;;;;1.30;1.23;;;;;;;8.96;76.42;102145.84;5144881;28;20191;-86
2022/10/19 06:50:04;;;;;;;4.68;1.17;;;;;;;8.92;75.16;102146.69;5126451;28;20047;-87
2022/10/19 06:52:34;;;;;;;0.65;0.65;;;;;;;9.00;74.21;102141.47;5133954;28;20069;-87
2022/10/19 06:55:06;;;;;;;0.63;0.63;;;;;;;9.00;74.38;102147.59;5148386;28;20062;-87
2022/10/19 06:57:36;;;;;;;2.65;1.67;;;;;;;9.02;74.52;102144.97;5120050;28;20027;-87
2022/10/19 07:00:07;;;;;;;1.10;1.10;;;;;;;8.92;77.13;102146.69;5131136;28;20039;-87
2022/10/19 07:02:37;;;;;;;1.60;1.35;;;;;;;8.92;75.97;102144.97;5125014;28;20045;-87
2022/10/19 07:05:08;;;;;;;0.60;0.60;;;;;;;9.05;73.86;102153.69;5142560;28;20092;-87
2022/10/19 07:07:39;;;;;;;0.85;0.60;;;;;;;9.14;73.54;102161.56;5135313;28;20500;-87
2022/10/19 07:10:09;;;;;;;1.45;1.35;;;;;;;9.13;76.51;102159.81;5151915;28;20043;-87
2022/10/19 07:12:39;;;;;;;0.75;0.75;;;;;;;9.08;77.01;102153.72;5131367;28;20031;-88
2022/10/19 07:15:10;;;;;;;0.82;0.82;;;;;;;9.01;78.30;102144.09;5134045;28;20031;-88
2022/10/19 07:17:40;;;;;;;0.35;0.35;;;;;;;8.90;80.11;102146.69;5120347;28;20504;-87
2022/10/19 07:20:11;;;;;;;0.85;0.85;;;;;;;9.04;79.31;102146.72;5138572;28;20520;-88
2022/10/19 07:22:41;;;;;;;0.73;0.73;;;;;;;9.02;79.09;102151.09;5148580;28;20031;-87
2022/10/19 07:25:13;;;;;;;0.77;0.77;;;;;;;9.05;78.82;102150.22;5156565;28;20070;-87
2022/10/19 07:27:43;;;;;;;1.20;1.20;;;;;;;9.05;79.80;102158.06;5143152;28;20398;-87
2022/10/19 07:30:13;;;;;;;0.75;0.75;;;;;;;9.04;80.11;102148.47;5138150;28;20339;-87
2022/10/19 07:32:44;;;;;;;2.38;0.82;;;;;;;9.06;79.64;102150.22;5119198;28;20511;-88
2022/10/19 07:35:14;;;;;;;0.45;0.45;;;;;;;9.06;80.82;102144.09;5149622;28;20082;-87
2022/10/19 07:37:45;;;;;;;2.50;2.35;;;;;;;9.10;81.31;102149.34;5138176;28;20045;-88
2022/10/19 07:40:15;;;;;;;1.58;1.40;;;;;;;9.09;82.02;102152.84;5126459;28;20049;-87
2022/10/19 07:42:46;;;;;;;0.45;0.45;;;;;;;9.11;81.70;102158.06;5149721;28;20539;-88
2022/10/19 07:45:16;;;;;;;6.47;3.30;;;;;;;9.17;80.06;102160.72;5135430;28;20066;-88
2022/10/19 07:47:47;;;;;;;8.10;2.05;;;;;;;9.25;79.10;102152.88;5129133;28;20042;-87
2022/10/19 07:50:17;;;;;;;1.35;1.25;;;;;;;9.36;77.31;102160.72;5150759;28;20049;-87
2022/10/19 07:52:48;;;;;;;0.45;0.45;;;;;;;9.36;77.51;102151.16;5127861;28;20071;-87
2022/10/19 07:55:18;;;;;;;13.95;1.63;;;;;;;9.36;79.42;102152.88;5136343;28;20111;-87
2022/10/19 07:57:49;;;;;;;0.47;0.47;;;;;;;9.30;81.16;102151.13;5111303;28;20429;-87
2022/10/19 08:00:19;;;;;;;0.73;0.73;;;;;;;9.40;80.16;102152.88;5103470;28;20054;-87
2022/10/19 08:02:50;;;;;;;2.38;1.10;;;;;;;9.33;81.54;102145.03;5109673;28;20099;-87
2022/10/19 08:05:20;;;;;;;1.42;1.27;;;;;;;9.44;80.14;102143.28;5130591;28;20127;-88
2022/10/19 08:07:50;;;;;;;1.15;1.05;;;;;;;9.45;79.68;102132.81;5142804;28;20063;-85
2022/10/19 08:10:21;;;;;;;1.70;1.60;;;;;;;9.45;79.56;102135.44;5110903;28;20043;-88
2022/10/19 08:12:52;;;;;;;1.23;1.00;;;;;;;9.58;79.30;102135.41;5104498;29;20059;-88
2022/10/19 08:15:22;;;;;;;9.15;2.05;;;;;;;9.57;79.18;102139.81;5140571;28;20043;-87
2022/10/19 08:17:53;;;;;;;1.20;1.10;;;;;;;9.53;80.26;102137.19;5145437;28;20041;-88
2022/10/19 08:20:23;;;;;;;0.40;0.40;;;;;;;9.58;78.90;102130.19;5092625;29;20192;-87
2022/10/19 08:22:54;;;;;;;0.60;0.60;;;;;;;9.57;80.11;102131.03;5094552;29;20030;-88
2022/10/19 08:25:24;;;;;;;0.63;0.63;;;;;;;9.65;78.40;102131.91;5134686;28;20059;-87
2022/10/19 08:27:55;;;;;;;1.23;1.13;;;;;;;9.62;81.26;102126.69;5149768;28;20492;-88
2022/10/19 08:30:26;;;;;;;1.92;1.83;;;;;;;9.76;80.21;102129.28;5144141;28;20043;-88
2022/10/19 08:32:56;;;;;;;2.78;1.35;;;;;;;9.72;80.23;102117.06;5113182;28;20089;-87
2022/10/19 08:35:26;;;;;;;0.52;0.52;;;;;;;9.73;81.67;102124.94;5113559;28;20042;-87
2022/10/19 08:37:57;;;;;;;0.35;0.35;;;;;;;9.76;80.18;102130.16;5130230;28;20043;-85
2022/10/19 08:40:29;;;;;;;0.30;0.30;;;;;;;9.80;80.30;102119.66;5112967;28;20066;-87
2022/10/19 08:43:09;;;;;;;0.73;0.70;;;;;;;9.85;79.42;102115.31;5149279;28;20114;-88
2022/10/19 08:45:43;;;;;;;0.60;0.60;;;;;;;9.87;79.99;102116.19;5129183;28;20124;-88
2022/10/19 08:48:35;;;;;;;1.50;1.25;;;;;;;9.93;79.65;102110.91;5129505;28;20105;-88
2022/10/19 08:51:08;;;;;;;0.70;0.70;;;;;;;10.00;79.07;102115.28;5160077;28;20054;-87
2022/10/19 08:53:50;;;;;;;0.45;0.45;;;;;;;10.01;79.23;102106.53;5121118;28;20044;-87
2022/10/19 08:56:29;;;;;;;1.05;1.05;;;;;;;10.04;80.20;102103.88;5132412;28;20990;-88
2022/10/19 08:59:06;;;;;;;0.88;0.88;;;;;;;10.12;80.33;102111.75;5142020;28;20023;-88
2022/10/19 09:01:44;;;;;;;1.40;0.98;;;;;;;10.22;78.87;102112.56;5127655;28;20035;-88
2022/10/19 09:04:37;;;;;;;1.52;1.20;;;;;;;10.21;79.10;102109.09;5137125;28;20102;-86
2022/10/19 09:07:28;;;;;;;0.47;0.47;;;;;;;10.25;79.96;102107.34;5125215;28;20045;-86
2022/10/19 09:10:02;;;;;;;0.50;0.50;;;;;;;10.32;80.04;102106.44;5122619;28;20052;-85
2022/10/19 09:12:36;;;;;;;0.47;0.47;;;;;;;10.29;80.07;102101.19;5098519;29;20378;-86
2022/10/19 09:15:10;;;;;;;;;;;;;;;10.42;78.66;102111.69;5114856;28;20135;-85
2022/10/19 09:17:40;;;;;;;0.55;0.55;;;;;;;10.42;80.51;102109.91;5112713;29;19918;-86
2022/10/19 09:20:20;;;;;;;0.75;0.75;;;;;;;10.42;79.83;102107.28;5108160;28;20119;-85
2022/10/19 09:23:08;;;;;;;0.70;0.70;;;;;;;10.56;78.98;102091.47;5123228;28;20394;-86
2022/10/19 09:25:39;;;;;;;1.40;1.30;;;;;;;10.61;78.51;102088.84;5114602;28;20055;-86
2022/10/19 09:28:44;;;;;;;0.40;0.40;;;;;;;10.71;78.57;102086.16;5123852;28;20087;-85
2022/10/19 09:31:23;;;;;;;1.02;1.02;;;;;;;10.63;81.03;102087.94;5114262;28;20047;-82
2022/10/19 09:33:59;;;;;;;0.30;0.30;;;;;;;10.67;79.15;102087.06;5114009;28;20122;-85
2022/10/19 09:36:52;;;;;;;0.50;0.50;;;;;;;10.71;80.87;102082.66;5131495;28;20047;-85
2022/10/19 09:39:25;;;;;;;4.85;1.58;;;;;;;10.67;80.28;102079.19;5126150;28;20039;-85
2022/10/19 09:41:58;;;;;;;0.60;0.60;;;;;;;10.76;80.10;102077.38;5110176;28;20045;-85
2022/10/19 09:44:29;;;;;;;0.85;0.85;;;;;;;10.81;80.50;102088.72;5131586;28;20035;-85
2022/10/19 09:47:34;;;;;;;1.00;1.00;;;;;;;10.83;79.66;102084.34;5112858;29;20094;-86
2022/10/19 09:50:17;;;;;;;1.25;1.17;;;;;;;10.94;79.37;102086.88;5116260;28;20408;-85
2022/10/19 09:53:03;;;;;;;0.73;0.73;;;;;;;10.93;79.46;102083.41;5131399;28;20039;-85
2022/10/19 09:55:41;;;;;;;0.38;0.38;;;;;;;10.98;79.11;102084.22;5084327;29;20043;-85
2022/10/19 09:58:18;;;;;;;1.05;1.05;;;;;;;11.01;80.17;102084.22;5132730;28;20034;-85
2022/10/19 10:00:54;;;;;;;0.82;0.82;;;;;;;11.04;80.28;102083.31;5114794;28;20130;-85
2022/10/19 10:03:30;;;;;;;0.88;0.88;;;;;;;11.23;79.13;102081.44;5114196;28;20035;-86
2022/10/19 10:06:05;;;;;;;0.50;0.50;;;;;;;11.20;79.47;102077.94;5111753;28;20043;-85
2022/10/19 10:08:39;;;;;;;0.73;0.73;;;;;;;11.22;80.24;102066.53;5107625;29;20409;-85
2022/10/19 10:11:15;;;;;;;2.70;2.03;;;;;;;11.28;79.33;102065.63;5103468;28;20063;-85
2022/10/19 10:13:51;;;;;;;0.90;0.88;;;;;;;11.34;80.03;102062.94;5099029;29;20032;-85
2022/10/19 10:16:29;;;;;;;8.02;0.98;;;;;;;11.48;78.91;102052.31;5112925;28;20047;-85
2022/10/19 10:19:06;;;;;;;0.70;0.70;;;;;;;11.54;79.36;102060.13;5097420;28;20344;-86
2022/10/19 10:21:53;;;;;;;0.63;0.63;;;;;;;11.51;79.40;102054.91;5129735;28;20039;-85
2022/10/19 10:24:32;;;;;;;0.40;0.40;;;;;;;11.50;79.10;102053.16;5132080;28;20031;-85
2022/10/19 10:27:05;;;;;;;1.80;1.70;;;;;;;11.59;79.31;102053.09;5110794;29;20038;-85
2022/10/19 10:29:38;;;;;;;0.60;0.60;;;;;;;11.62;78.65;102054.81;5110437;28;20417;-85
2022/10/19 10:32:18;;;;;;;0.55;0.55;;;;;;;11.59;79.24;102053.09;5089522;29;20450;-85
2022/10/19 10:34:57;;;;;;;2.00;1.83;;;;;;;11.68;78.45;102048.63;5132872;28;20559;-86
2022/10/19 10:37:38;;;;;;;0.55;0.55;;;;;;;11.67;78.48;102047.72;5093098;29;20086;-87
2022/10/19 10:40:22;;;;;;;1.65;1.02;;;;;;;11.86;78.33;102043.13;5125170;28;20553;-90
2022/10/19 10:42:55;;;;;;;1.75;1.23;;;;;;;11.85;77.75;102044.06;5117314;28;20098;-88
2022/10/19 10:45:53;;;;;;;5.28;2.28;;;;;;;11.85;78.25;102041.41;5133847;28;20043;-87
2022/10/19 10:48:30;;;;;;;1.70;0.82;;;;;;;11.90;78.20;102033.47;5112993;29;20094;-90
2022/10/19 10:51:01;;;;;;;1.33;1.02;;;;;;;11.96;78.00;102036.88;5089080;29;21545;-86
2022/10/19 10:53:37;;;;;;;1.13;1.13;;;;;;;11.98;78.25;102036.03;5105860;29;20027;-87
2022/10/19 10:56:28;;;;;;;0.45;0.45;;;;;;;11.98;78.47;102031.66;5135362;28;20594;-88
2022/10/19 10:59:05;;;;;;;0.68;0.68;;;;;;;12.09;78.19;102018.38;5120165;28;20083;-87
2022/10/19 11:01:40;;;;;;;4.82;1.65;;;;;;;12.14;78.43;102015.69;5118341;28;20070;-88
2022/10/19 11:04:18;;;;;;;0.60;0.60;;;;;;;12.16;78.33;102009.50;5139280;28;20180;-87
2022/10/19 11:07:00;;;;;;;12.38;1.40;;;;;;;12.27;77.00;102004.09;5116529;28;20035;-86
2022/10/19 11:09:41;;;;;;;0.70;0.70;;;;;;;12.34;77.40;101995.22;5134443;28;20031;-86
2022/10/19 11:12:18;;;;;;;0.93;0.85;;;;;;;12.35;77.69;101993.47;5104912;29;20496;-87
2022/10/19 11:15:01;;;;;;;0.93;0.88;;;;;;;12.41;77.34;101994.22;5137211;28;20122;-87
2022/10/19 11:17:35;;;;;;;3.00;0.73;;;;;;;12.51;76.80;101981.84;5139572;28;20092;-87
2022/10/19 11:20:09;;;;;;;0.95;0.95;;;;;;;12.57;76.58;101984.38;5134631;28;20039;-88
2022/10/19 11:22:52;;;;;;;2.63;1.85;;;;;;;12.63;76.65;101982.50;5106590;28;20209;-87
2022/10/19 11:25:31;;;;;;;2.05;1.95;;;;;;;12.61;76.66;101985.19;5128687;28;20050;-87
2022/10/19 11:28:29;;;;;;;1.75;1.38;;;;;;;12.73;75.61;101992.03;5109900;29;20035;-88
2022/10/19 11:31:19;;;;;;;0.40;0.40;;;;;;;12.79;75.84;101986.66;5121193;28;20118;-87
2022/10/19 11:34:04;;;;;;;1.48;1.38;;;;;;;12.82;76.25;101978.72;5093120;28;20031;-86
2022/10/19 11:36:48;;;;;;;1.73;1.63;;;;;;;12.88;75.88;101968.06;5133638;28;20054;-88
2022/10/19 11:39:28;;;;;;;0.52;0.52;;;;;;;13.12;74.83;101968.53;5117202;28;20047;-88
2022/10/19 11:42:05;;;;;;;0.43;0.43;;;;;;;13.01;75.46;101971.34;5131541;28;20035;-88
2022/10/19 11:44:57;;;;;;;0.40;0.40;;;;;;;13.06;75.97;101968.66;5122353;28;20135;-88
2022/10/19 11:47:38;;;;;;;0.85;0.85;;;;;;;13.20;75.21;101963.13;5118921;28;20027;-88
2022/10/19 11:50:21;;;;;;;0.30;0.30;;;;;;;13.42;74.54;101958.38;5110975;28;20076;-87
2022/10/19 11:53:16;;;;;;;0.47;0.47;;;;;;;13.33;74.26;101947.97;5114964;28;20039;-88
2022/10/19 11:55:57;;;;;;;0.73;0.73;;;;;;;13.45;74.55;101946.88;5128664;28;20291;-85
2022/10/19 11:58:54;;;;;;;0.30;0.30;;;;;;;13.53;74.08;101951.09;5122789;28;20122;-87
2022/10/19 12:01:41;;;;;;;0.60;0.60;;;;;;;13.62;73.07;101943.91;5137848;28;20696;-90
2022/10/19 12:04:40;;;;;;;0.40;0.40;;;;;;;13.72;73.22;101929.63;5086591;29;20070;-88